Humidity-temperature Sensor

Selected Measurement Type: Relative Humidity

 
Relative Humidity [%]     6 entries per hour
Showing data from 9/5/2022 (00:00:00 Z) to 8/29/2022 (00:01:00 Z)
Previous Next [ Day | 3-Days | 7-Days ]
First Last
Prev [ Day | 3-Days | 7-Days ] Next
First Last

Start Time:     :
End Time:     :     
Time (in GMT) :00 :50 :40 :30 :20 :10
Previous Next [ Day | 3-Days | 7-Days ]
First Last
Prev [ Day | 3-Days | 7-Days ] Next
First Last


123 => good data
MM => data is determined as missing
-- => data not received/configured
Back to Top Back to Top
9/5/2022 00:00 to 23:10 81.83 82.82 82.72 81.98 81.77 81.50
9/4/2022 23:00 to 22:10 82.19 82.45 82.62 82.70 82.68 83.07
9/4/2022 22:00 to 21:10 83.52 83.73 83.34 82.02 82.52 83.28
9/4/2022 21:00 to 20:10 83.07 82.78 82.89 82.08 81.38 81.84
9/4/2022 20:00 to 19:10 82.31 81.65 81.50 82.18 82.43 83.17
9/4/2022 19:00 to 18:10 82.41 82.74 83.71 84.87 85.57 86.08
9/4/2022 18:00 to 17:10 86.51 87.13 87.81 89.75 90.04 89.61
9/4/2022 17:00 to 16:10 88.31 88.60 88.27 87.67 87.44 87.90
9/4/2022 16:00 to 15:10 87.65 87.73 87.54 87.22 88.06 88.91
9/4/2022 15:00 to 14:10 88.99 89.30 90.16 89.19 87.44 87.63
9/4/2022 14:00 to 13:10 86.72 86.47 86.37 85.85 85.90 86.41
9/4/2022 13:00 to 12:10 86.62 87.07 87.01 86.27 86.16 86.12
9/4/2022 12:00 to 11:10 85.71 86.35 85.87 85.57 85.11 85.34
9/4/2022 11:00 to 10:10 84.93 84.58 85.59 85.01 85.38 86.08
9/4/2022 10:00 to 9:10 86.21 86.21 86.49 86.68 85.81 85.36
9/4/2022 09:00 to 8:10 85.11 84.74 84.91 85.42 85.69 85.09
9/4/2022 08:00 to 7:10 84.86 84.93 84.72 85.79 88.45 88.57
9/4/2022 07:00 to 6:10 89.15 89.13 89.05 90.57 89.83 90.18
9/4/2022 06:00 to 5:10 90.49 88.80 84.89 83.98 84.49 84.20
9/4/2022 05:00 to 4:10 83.15 83.22 83.63 83.48 83.44 83.07
9/4/2022 04:00 to 3:10 83.32 82.95 83.05 83.11 82.74 82.47
9/4/2022 03:00 to 2:10 82.25 81.71 81.65 83.86 83.36 83.57
9/4/2022 02:00 to 1:10 83.61 82.93 84.16 84.47 84.37 84.16
9/4/2022 01:00 to 0:10 83.81 83.85 84.06 83.86 84.27 84.56
9/4/2022 00:00 to 23:10 85.28 85.34 85.94 86.62 86.88 86.95
9/3/2022 23:00 to 22:10 86.64 86.23 85.85 85.98 85.73 85.20
9/3/2022 22:00 to 21:10 85.03 84.23 83.98 83.81 85.36 86.74
9/3/2022 21:00 to 20:10 86.53 85.96 86.31 86.91 86.18 85.73
9/3/2022 20:00 to 19:10 84.89 83.48 83.98 84.18 83.90 83.71
9/3/2022 19:00 to 18:10 84.04 84.27 85.11 85.98 85.96 85.71
9/3/2022 18:00 to 17:10 85.90 85.65 85.88 85.88 86.02 85.77
9/3/2022 17:00 to 16:10 86.16 85.73 85.26 84.37 85.22 85.09
9/3/2022 16:00 to 15:10 84.31 84.18 84.78 84.99 85.48 85.40
9/3/2022 15:00 to 14:10 85.26 85.50 85.85 87.79 88.88 88.70
9/3/2022 14:00 to 13:10 88.14 87.42 85.30 86.23 86.14 86.00
9/3/2022 13:00 to 12:10 85.65 85.36 86.82 86.51 86.76 87.42
9/3/2022 12:00 to 11:10 87.83 86.68 85.61 85.24 85.40 85.54
9/3/2022 11:00 to 10:10 85.55 86.06 85.63 84.68 84.41 83.67
9/3/2022 10:00 to 9:10 -- -- -- -- -- --
9/3/2022 09:00 to 8:10 84.76 84.58 84.16 83.92 83.75 83.42
9/3/2022 08:00 to 7:10 82.97 83.17 83.65 83.11 83.11 83.61
9/3/2022 07:00 to 6:10 83.46 84.43 84.45 83.77 83.42 83.28
9/3/2022 06:00 to 5:10 83.19 82.95 82.93 82.23 82.68 82.18
9/3/2022 05:00 to 4:10 82.58 82.51 82.35 81.69 82.04 82.87
9/3/2022 04:00 to 3:10 82.84 82.47 82.56 82.93 82.99 83.63
9/3/2022 03:00 to 2:10 83.65 83.98 83.69 82.84 82.80 82.68
9/3/2022 02:00 to 1:10 82.68 82.87 83.86 85.20 86.25 85.73
9/3/2022 01:00 to 0:10 85.67 85.24 84.97 84.47 84.14 85.22
9/3/2022 00:00 to 23:10 86.27 86.06 85.79 85.22 85.54 86.20
9/2/2022 23:00 to 22:10 87.56 89.23 90.95 90.97 89.83 82.97
9/2/2022 22:00 to 21:10 83.03 82.58 82.02 82.16 81.55 81.92
9/2/2022 21:00 to 20:10 81.79 83.01 83.55 84.53 84.72 84.23
9/2/2022 20:00 to 19:10 83.48 84.12 84.27 83.67 84.66 83.15
9/2/2022 19:00 to 18:10 82.41 81.38 81.75 80.91 81.01 81.30
9/2/2022 18:00 to 17:10 82.39 82.23 80.83 81.09 81.09 81.34
9/2/2022 17:00 to 16:10 81.36 81.84 82.23 82.19 82.06 81.75
9/2/2022 16:00 to 15:10 81.90 81.17 80.60 80.70 81.51 81.65
9/2/2022 15:00 to 14:10 82.29 81.90 82.41 82.35 82.12 81.94
9/2/2022 14:00 to 13:10 81.77 82.33 82.08 81.73 80.31 80.33
9/2/2022 13:00 to 12:10 80.66 81.03 81.20 81.20 80.33 80.47
9/2/2022 12:00 to 11:10 80.10 80.31 80.41 80.62 80.60 80.72
9/2/2022 11:00 to 10:10 80.72 80.43 80.35 81.77 81.09 80.82
9/2/2022 10:00 to 9:10 80.97 80.37 79.46 79.92 79.88 80.31
9/2/2022 09:00 to 8:10 80.70 80.41 80.56 79.16 79.22 79.11
9/2/2022 08:00 to 7:10 79.84 80.45 79.79 80.00 79.65 79.57
9/2/2022 07:00 to 6:10 80.52 79.86 79.84 79.86 80.35 80.83
9/2/2022 06:00 to 5:10 81.69 83.07 83.79 83.65 82.78 82.62
9/2/2022 05:00 to 4:10 82.68 82.29 82.35 82.16 81.86 81.79
9/2/2022 04:00 to 3:10 81.59 81.34 82.06 82.12 81.44 81.17
9/2/2022 03:00 to 2:10 80.37 80.19 80.72 80.54 80.78 80.16
9/2/2022 02:00 to 1:10 80.02 80.04 79.22 78.76 78.27 78.04
9/2/2022 01:00 to 0:10 79.07 79.75 79.11 78.78 79.42 79.16
9/2/2022 00:00 to 23:10 77.94 78.10 78.45 79.40 78.56 78.48
9/1/2022 23:00 to 22:10 77.90 77.26 76.54 75.88 75.36 75.11
9/1/2022 22:00 to 21:10 74.72 76.12 76.48 76.68 77.71 77.86
9/1/2022 21:00 to 20:10 78.41 77.88 78.15 77.77 77.57 78.48
9/1/2022 20:00 to 19:10 77.75 75.92 76.23 77.36 77.05 76.39
9/1/2022 19:00 to 18:10 76.27 79.42 81.09 82.29 83.96 84.99
9/1/2022 18:00 to 17:10 85.55 85.38 84.74 83.65 81.69 81.65
9/1/2022 17:00 to 16:10 84.78 88.29 90.27 86.84 80.39 80.66
9/1/2022 16:00 to 15:10 79.57 79.11 79.59 80.89 80.60 80.76
9/1/2022 15:00 to 14:10 80.83 80.00 79.49 79.03 78.72 79.18
9/1/2022 14:00 to 13:10 78.89 79.03 79.90 79.16 79.81 80.70
9/1/2022 13:00 to 12:10 80.10 80.60 80.12 79.09 79.61 81.32
9/1/2022 12:00 to 11:10 80.31 80.35 80.52 80.04 79.63 80.06
9/1/2022 11:00 to 10:10 79.34 78.81 79.51 79.28 80.23 79.51
9/1/2022 10:00 to 9:10 79.61 79.75 79.18 78.89 78.74 78.48
9/1/2022 09:00 to 8:10 79.63 79.59 79.24 80.23 79.94 80.23
9/1/2022 08:00 to 7:10 80.02 81.24 80.27 79.65 80.02 79.63
9/1/2022 07:00 to 6:10 78.80 80.00 79.86 79.30 79.61 79.42
9/1/2022 06:00 to 5:10 79.13 79.20 78.10 78.35 78.12 78.83
9/1/2022 05:00 to 4:10 81.75 82.19 81.48 81.40 82.21 82.00
9/1/2022 04:00 to 3:10 81.22 80.19 78.17 76.12 75.03 73.57
9/1/2022 03:00 to 2:10 74.04 75.20 77.80 85.77 86.62 84.86
9/1/2022 02:00 to 1:10 78.91 78.08 76.95 78.06 78.27 76.99
9/1/2022 01:00 to 0:10 77.20 77.61 77.51 76.76 76.70 76.89
9/1/2022 00:00 to 23:10 78.10 77.77 77.65 78.66 78.76 79.05
8/31/2022 23:00 to 22:10 80.00 80.87 80.10 79.55 78.91 78.48
8/31/2022 22:00 to 21:10 78.15 77.73 77.59 77.82 77.57 77.28
8/31/2022 21:00 to 20:10 77.07 76.60 76.72 75.82 75.92 76.25
8/31/2022 20:00 to 19:10 75.69 75.94 75.80 75.51 76.58 76.35
8/31/2022 19:00 to 18:10 76.31 75.65 76.46 75.32 76.50 76.56
8/31/2022 18:00 to 17:10 76.79 76.17 75.92 74.87 74.93 73.84
8/31/2022 17:00 to 16:10 74.10 73.76 73.63 72.11 72.95 71.88
8/31/2022 16:00 to 15:10 73.09 71.36 71.01 70.97 72.21 72.66
8/31/2022 15:00 to 14:10 72.64 71.59 70.17 71.12 69.88 70.91
8/31/2022 14:00 to 13:10 71.78 74.37 73.26 72.25 73.90 74.56
8/31/2022 13:00 to 12:10 73.65 74.00 73.43 71.88 70.70 71.14
8/31/2022 12:00 to 11:10 70.40 70.52 71.74 71.34 72.23 71.90
8/31/2022 11:00 to 10:10 69.80 70.91 71.76 73.14 75.01 75.42
8/31/2022 10:00 to 9:10 75.77 76.45 75.14 75.18 74.56 74.11
8/31/2022 09:00 to 8:10 74.11 73.10 76.41 77.34 77.14 78.10
8/31/2022 08:00 to 7:10 77.71 78.56 77.49 76.78 76.70 77.44
8/31/2022 07:00 to 6:10 77.30 77.51 75.94 76.52 75.59 75.45
8/31/2022 06:00 to 5:10 75.94 76.43 76.50 76.85 76.19 75.42
8/31/2022 05:00 to 4:10 75.44 74.72 75.73 73.09 75.77 77.26
8/31/2022 04:00 to 3:10 77.07 76.85 76.60 76.87 78.76 78.89
8/31/2022 03:00 to 2:10 77.26 76.74 76.56 75.88 75.71 76.95
8/31/2022 02:00 to 1:10 76.93 78.12 78.74 79.40 79.46 78.68
8/31/2022 01:00 to 0:10 78.99 77.47 77.88 77.28 77.98 76.91
8/31/2022 00:00 to 23:10 77.40 78.68 76.89 76.91 76.31 77.77
8/30/2022 23:00 to 22:10 78.06 77.42 78.54 79.57 78.17 77.05
8/30/2022 22:00 to 21:10 78.66 77.79 78.58 78.35 77.55 76.68
8/30/2022 21:00 to 20:10 76.60 75.65 75.61 75.38 74.11 75.94
8/30/2022 20:00 to 19:10 75.65 74.58 73.90 73.96 73.38 74.23
8/30/2022 19:00 to 18:10 73.67 75.18 74.97 75.82 76.68 77.51
8/30/2022 18:00 to 17:10 76.64 76.66 76.78 75.82 75.16 74.68
8/30/2022 17:00 to 16:10 74.81 73.90 74.08 74.60 72.99 72.85
8/30/2022 16:00 to 15:10 73.65 74.04 75.14 74.33 75.28 73.38
8/30/2022 15:00 to 14:10 74.15 73.59 74.29 74.17 74.50 77.01
8/30/2022 14:00 to 13:10 77.77 77.40 75.22 75.05 76.13 75.75
8/30/2022 13:00 to 12:10 74.95 76.21 77.20 76.78 78.48 79.20
8/30/2022 12:00 to 11:10 78.56 77.75 77.79 78.08 78.66 80.85
8/30/2022 11:00 to 10:10 81.51 82.84 82.29 82.29 83.15 85.69
8/30/2022 10:00 to 9:10 86.37 86.14 86.76 89.69 89.09 88.86
8/30/2022 09:00 to 8:10 86.23 81.81 80.99 80.58 80.91 80.02
8/30/2022 08:00 to 7:10 80.43 81.22 82.51 83.34 83.57 83.81
8/30/2022 07:00 to 6:10 82.93 82.16 81.51 81.92 81.32 80.66
8/30/2022 06:00 to 5:10 81.20 81.28 84.95 85.22 83.30 80.95
8/30/2022 05:00 to 4:10 80.74 80.49 80.21 79.59 79.73 78.76
8/30/2022 04:00 to 3:10 78.83 80.39 81.48 81.69 83.24 82.74
8/30/2022 03:00 to 2:10 82.82 82.56 82.02 81.50 81.61 82.10
8/30/2022 02:00 to 1:10 83.11 83.69 83.07 83.07 82.72 82.89
8/30/2022 01:00 to 0:10 81.98 82.21 81.50 81.07 81.71 81.84
8/30/2022 00:00 to 23:10 81.67 81.24 80.54 80.37 79.90 78.21
8/29/2022 23:00 to 22:10 79.88 79.86 79.67 80.50 81.22 80.29
8/29/2022 22:00 to 21:10 80.56 80.25 79.55 79.51 81.32 80.37
8/29/2022 21:00 to 20:10 80.50 80.45 80.14 80.60 81.22 82.21
8/29/2022 20:00 to 19:10 84.02 82.99 83.05 82.12 81.44 81.75
8/29/2022 19:00 to 18:10 81.05 81.11 82.68 83.85 84.31 85.11
8/29/2022 18:00 to 17:10 85.34 85.24 85.05 85.63 85.42 84.87
8/29/2022 17:00 to 16:10 84.27 83.20 83.34 83.15 82.72 82.78
8/29/2022 16:00 to 15:10 82.85 82.80 82.23 82.45 81.98 82.31
8/29/2022 15:00 to 14:10 82.35 82.64 82.31 82.45 85.42 88.95
8/29/2022 14:00 to 13:10 89.46 86.45 87.11 87.52 87.26 88.78
8/29/2022 13:00 to 12:10 87.94 86.82 86.21 85.73 85.65 84.91
8/29/2022 12:00 to 11:10 83.83 82.04 82.18 82.29 81.69 83.71
8/29/2022 11:00 to 10:10 82.99 83.11 83.01 82.84 83.59 84.16
8/29/2022 10:00 to 9:10 83.73 83.83 83.11 82.35 82.64 83.81
8/29/2022 09:00 to 8:10 84.23 84.91 84.18 83.88 83.63 82.97
8/29/2022 08:00 to 7:10 83.52 84.43 84.54 84.33 83.40 83.48
8/29/2022 07:00 to 6:10 84.33 84.51 84.04 84.06 84.95 84.62
8/29/2022 06:00 to 5:10 84.86 84.53 84.27 84.18 83.40 83.75
8/29/2022 05:00 to 4:10 83.73 83.13 82.66 82.68 83.07 82.08
8/29/2022 04:00 to 3:10 82.82 82.39 82.31 82.06 81.79 81.98
8/29/2022 03:00 to 2:10 82.27 82.62 82.56 81.69 81.90 81.84
8/29/2022 02:00 to 1:10 81.96 81.94 81.98 82.00 81.67 81.88
8/29/2022 01:00 to 0:10 82.16 82.21 83.07 84.27 84.68 85.36